Résultats sport de masse course à pied

Résultats : Corrida de Noël - Corrida de Noël 10km

Classement général Classement Sexe Nom, prénom Catégorie Sexe Club Temps global
51 1 NOUZILLE PAULINE SE F RUNNING CLUB SAINT MAIXENT 00:40:58
56 2 STEUNOU Sophie V1 F NIORT ENDURANCE 79 00:41:31
72 3 REBEYROL Audrey SE F S/L UAC BRIOUXAISE 00:42:44
82 4 COUTANT ADELINE SE F RUNNING CLUB SAINT MAIXENT 00:43:35
106 5 GOURIN Christelle V1 F 00:44:25
121 6 PONCELET SYLVIANE V1 F ADC LOCHES 00:44:59
156 7 SELOSSE Anne V2 F RUN ACCUEIL LA ROCHELLE 00:46:38
166 8 JOUBERT Marion SE F 00:47:03
172 9 GENDRE Pauline SE F 00:47:09
173 10 STEWART Cathy V2 F ALDERSHOT, FARNHAM & DISTRICT 00:47:10
175 11 COBICO Marlène SE F NIORT ENDURANCE 00:47:14
177 12 BRILLAUD Manon ES F FOULEES 79 00:47:21
181 13 NOUZILLE Clémence SE F STEF NIORT 1 00:47:28
183 14 BITAUDEAU SONIA V1 F JOG GATINE 00:47:37
211 15 RIGAGNEAU Christine V2 F LES 12 14 NIORT 00:48:19
218 16 GRIJOLOT Apolline JU F 00:48:34
227 17 DELAVEAU Isabelle V1 F 00:49:00
250 18 RICHARD Karine V1 F 00:49:52
261 19 DELIGNE Marie SE F RUNNING CLUB SAINT MAIXENT 00:50:13
268 20 WAECHTER EMMANUELLE V1 F 00:50:29
277 21 DIEUMEGARD Chloé SE F NIORT ENDURANCE 00:50:52
278 22 GOUIN Pauline SE F 00:50:54
281 23 DHOUIB Myriam V1 F 00:50:59
296 24 MILON Sabrina SE F 00:51:30
301 25 CHABEAUDIE Isaline CA F RUNNING CLUB ST MAIXENT 00:51:42
302 26 POILANE Alice SE F RUNNING CLUB SAINT MAIXENT 00:51:44
305 27 AUMONIER Séverine V1 F CA PARTHENAY 00:51:55
311 28 TALBOT Isabelle V1 F 00:52:05
313 29 COUDERC MARIAN V2 F 00:52:07
314 30 BONNEAU Margaux SE F 00:52:08
316 31 GIRAULT CAROLE V1 F 00:52:10
322 32 NOIZET Camille JU F 00:52:27
323 33 DUPUIS Katrin V1 F 00:52:30
324 34 ROBERT Nathalie V2 F 00:52:32
329 35 CLERGEAUD Véronique V1 F 00:52:44
333 36 FAUCHEUX NICOLE V4 F 00:52:51
335 37 DESMIER Stéphanie V1 F RUNNING CLUB SAINT MAIXENT 00:52:53
337 38 AUBINEAU MARINE SE F VO2 BESSINES 00:52:54
346 39 PARTAUD Daisy V1 F VO2 BESSINES 00:53:08
347 40 ROUSSEAU Jessica SE F 00:53:10
353 41 MICHAUD ALICE SE F RUNNING CLUB SAINT MAIXENT 00:53:20
358 42 FOUQUET _ LAMARCHE Séverine V1 F 00:53:30
359 43 WOLYNIEC Valérie SE F 00:53:33
363 44 LE GUEN Christelle V1 F 00:53:37
364 45 TSAKIRAKIS Sybille V2 F 00:53:39
368 46 AMARI Muriel V1 F RUN IN NIORT 00:53:47
369 47 GUILLERME Julie SE F 00:53:48
371 48 BRENET Florence V2 F 00:53:54
372 49 LUCET Isabelle V2 F TCG79 PARTHENAY 00:53:54
382 50 REBELO Elvira V1 F GROUPAMA 00:54:30
Première page Page précédente 1 2 3 4